sensor_id;sensor_type;location;lat;lon;timestamp;temperature;humidity
40323;DHT22;26030;51.164;17.100;2023-03-25T00:03:07;21.80;71.00
40323;DHT22;26030;51.164;17.100;2023-03-25T00:08:11;21.80;70.80
40323;DHT22;26030;51.164;17.100;2023-03-25T00:13:16;21.90;70.60
40323;DHT22;26030;51.164;17.100;2023-03-25T00:18:20;21.80;70.20
40323;DHT22;26030;51.164;17.100;2023-03-25T00:23:25;21.80;70.20
40323;DHT22;26030;51.164;17.100;2023-03-25T00:28:31;21.80;69.40
40323;DHT22;26030;51.164;17.100;2023-03-25T00:33:38;21.80;69.80
40323;DHT22;26030;51.164;17.100;2023-03-25T00:38:47;21.80;69.90
40323;DHT22;26030;51.164;17.100;2023-03-25T00:43:52;21.80;70.00
40323;DHT22;26030;51.164;17.100;2023-03-25T00:48:58;21.70;69.80
40323;DHT22;26030;51.164;17.100;2023-03-25T00:54:03;21.80;70.10
40323;DHT22;26030;51.164;17.100;2023-03-25T00:59:09;21.70;69.50
40323;DHT22;26030;51.164;17.100;2023-03-25T01:04:13;21.70;69.30
40323;DHT22;26030;51.164;17.100;2023-03-25T01:09:19;21.70;69.40
40323;DHT22;26030;51.164;17.100;2023-03-25T01:14:24;21.70;69.10
40323;DHT22;26030;51.164;17.100;2023-03-25T01:19:30;21.80;68.80
40323;DHT22;26030;51.164;17.100;2023-03-25T01:24:34;21.90;68.00
40323;DHT22;26030;51.164;17.100;2023-03-25T01:29:38;21.90;67.80
40323;DHT22;26030;51.164;17.100;2023-03-25T01:34:42;21.90;68.00
40323;DHT22;26030;51.164;17.100;2023-03-25T01:39:46;22.30;67.10
40323;DHT22;26030;51.164;17.100;2023-03-25T01:49:55;22.60;66.40
40323;DHT22;26030;51.164;17.100;2023-03-25T01:54:59;22.70;66.60
40323;DHT22;26030;51.164;17.100;2023-03-25T02:00:04;22.70;66.40
40323;DHT22;26030;51.164;17.100;2023-03-25T02:05:16;22.90;66.00
40323;DHT22;26030;51.164;17.100;2023-03-25T02:10:24;23.00;65.70
40323;DHT22;26030;51.164;17.100;2023-03-25T02:15:28;23.10;65.10
40323;DHT22;26030;51.164;17.100;2023-03-25T02:20:45;23.10;64.80
40323;DHT22;26030;51.164;17.100;2023-03-25T02:47:42;23.60;63.60
40323;DHT22;26030;51.164;17.100;2023-03-25T02:52:50;23.60;63.40
40323;DHT22;26030;51.164;17.100;2023-03-25T02:57:58;23.60;63.50
40323;DHT22;26030;51.164;17.100;2023-03-25T03:03:07;23.50;63.40
40323;DHT22;26030;51.164;17.100;2023-03-25T03:18:56;23.40;63.40
40323;DHT22;26030;51.164;17.100;2023-03-25T03:24:30;23.30;63.20
40323;DHT22;26030;51.164;17.100;2023-03-25T03:29:43;23.20;63.70
40323;DHT22;26030;51.164;17.100;2023-03-25T03:40:42;22.90;64.30
40323;DHT22;26030;51.164;17.100;2023-03-25T03:45:53;22.80;64.70
40323;DHT22;26030;51.164;17.100;2023-03-25T03:51:02;22.70;64.70
40323;DHT22;26030;51.164;17.100;2023-03-25T03:56:14;22.70;64.80
40323;DHT22;26030;51.164;17.100;2023-03-25T04:01:27;22.50;65.00
40323;DHT22;26030;51.164;17.100;2023-03-25T04:06:43;22.50;64.90
40323;DHT22;26030;51.164;17.100;2023-03-25T04:12:00;22.50;65.10
40323;DHT22;26030;51.164;17.100;2023-03-25T04:17:08;22.60;64.90
40323;DHT22;26030;51.164;17.100;2023-03-25T04:22:14;22.40;65.10
40323;DHT22;26030;51.164;17.100;2023-03-25T04:27:20;22.40;65.40
40323;DHT22;26030;51.164;17.100;2023-03-25T04:32:32;22.40;65.20
40323;DHT22;26030;51.164;17.100;2023-03-25T04:37:37;22.30;65.00
40323;DHT22;26030;51.164;17.100;2023-03-25T04:42:41;22.40;64.70
40323;DHT22;26030;51.164;17.100;2023-03-25T04:47:45;22.50;64.40
40323;DHT22;26030;51.164;17.100;2023-03-25T04:52:51;22.40;64.60
40323;DHT22;26030;51.164;17.100;2023-03-25T04:57:56;22.30;65.00
40323;DHT22;26030;51.164;17.100;2023-03-25T05:03:00;22.20;65.50
40323;DHT22;26030;51.164;17.100;2023-03-25T05:08:04;22.10;64.80
40323;DHT22;26030;51.164;17.100;2023-03-25T05:13:10;22.10;65.40
40323;DHT22;26030;51.164;17.100;2023-03-25T05:18:15;22.00;65.40
40323;DHT22;26030;51.164;17.100;2023-03-25T05:23:20;22.00;65.20
40323;DHT22;26030;51.164;17.100;2023-03-25T05:28:24;22.00;65.50
40323;DHT22;26030;51.164;17.100;2023-03-25T05:33:28;21.90;65.80
40323;DHT22;26030;51.164;17.100;2023-03-25T05:38:32;21.90;65.90
40323;DHT22;26030;51.164;17.100;2023-03-25T05:43:37;21.90;65.50
40323;DHT22;26030;51.164;17.100;2023-03-25T05:48:41;21.90;65.50
40323;DHT22;26030;51.164;17.100;2023-03-25T05:53:45;21.80;65.50
40323;DHT22;26030;51.164;17.100;2023-03-25T05:58:53;21.80;65.50
40323;DHT22;26030;51.164;17.100;2023-03-25T06:03:59;21.80;65.50
40323;DHT22;26030;51.164;17.100;2023-03-25T06:09:05;21.80;65.50
40323;DHT22;26030;51.164;17.100;2023-03-25T06:14:10;21.80;65.80
40323;DHT22;26030;51.164;17.100;2023-03-25T06:19:14;21.80;65.50
40323;DHT22;26030;51.164;17.100;2023-03-25T06:24:20;21.80;65.50
40323;DHT22;26030;51.164;17.100;2023-03-25T06:29:25;21.80;65.50
40323;DHT22;26030;51.164;17.100;2023-03-25T06:34:29;21.80;65.50
40323;DHT22;26030;51.164;17.100;2023-03-25T06:39:35;21.90;65.30
40323;DHT22;26030;51.164;17.100;2023-03-25T06:44:51;22.10;64.60
40323;DHT22;26030;51.164;17.100;2023-03-25T06:50:15;22.40;63.70
40323;DHT22;26030;51.164;17.100;2023-03-25T06:55:20;22.60;63.50
40323;DHT22;26030;51.164;17.100;2023-03-25T07:00:24;22.70;63.70
40323;DHT22;26030;51.164;17.100;2023-03-25T07:05:29;22.80;63.10
40323;DHT22;26030;51.164;17.100;2023-03-25T07:10:33;22.80;63.30
40323;DHT22;26030;51.164;17.100;2023-03-25T07:15:37;22.90;62.90
40323;DHT22;26030;51.164;17.100;2023-03-25T07:20:41;23.00;62.80
40323;DHT22;26030;51.164;17.100;2023-03-25T07:25:48;22.90;62.70
40323;DHT22;26030;51.164;17.100;2023-03-25T07:30:53;23.00;62.60
40323;DHT22;26030;51.164;17.100;2023-03-25T07:35:58;23.00;63.00
40323;DHT22;26030;51.164;17.100;2023-03-25T07:41:05;23.10;62.30
40323;DHT22;26030;51.164;17.100;2023-03-25T07:46:11;23.20;62.80
40323;DHT22;26030;51.164;17.100;2023-03-25T07:51:15;23.30;62.10
40323;DHT22;26030;51.164;17.100;2023-03-25T07:56:19;23.40;61.80
40323;DHT22;26030;51.164;17.100;2023-03-25T08:01:24;23.40;61.80
40323;DHT22;26030;51.164;17.100;2023-03-25T08:06:29;23.50;62.00
40323;DHT22;26030;51.164;17.100;2023-03-25T08:11:33;23.60;61.90
40323;DHT22;26030;51.164;17.100;2023-03-25T08:16:37;23.60;61.30
40323;DHT22;26030;51.164;17.100;2023-03-25T08:21:43;23.70;61.20
40323;DHT22;26030;51.164;17.100;2023-03-25T08:26:47;23.70;61.50
40323;DHT22;26030;51.164;17.100;2023-03-25T08:31:52;23.70;61.00
40323;DHT22;26030;51.164;17.100;2023-03-25T08:36:57;23.70;61.20
40323;DHT22;26030;51.164;17.100;2023-03-25T08:42:01;23.70;61.30
40323;DHT22;26030;51.164;17.100;2023-03-25T08:47:05;23.60;62.80
40323;DHT22;26030;51.164;17.100;2023-03-25T08:52:09;23.50;62.80
40323;DHT22;26030;51.164;17.100;2023-03-25T08:57:13;23.50;62.20
40323;DHT22;26030;51.164;17.100;2023-03-25T09:02:17;23.40;62.10
40323;DHT22;26030;51.164;17.100;2023-03-25T09:07:21;23.40;62.70
40323;DHT22;26030;51.164;17.100;2023-03-25T09:12:25;23.30;63.90
40323;DHT22;26030;51.164;17.100;2023-03-25T09:17:30;23.40;63.60
40323;DHT22;26030;51.164;17.100;2023-03-25T09:22:34;23.30;63.30
40323;DHT22;26030;51.164;17.100;2023-03-25T09:27:39;23.20;63.20
40323;DHT22;26030;51.164;17.100;2023-03-25T09:32:43;23.10;64.00
40323;DHT22;26030;51.164;17.100;2023-03-25T09:37:48;23.10;64.20
40323;DHT22;26030;51.164;17.100;2023-03-25T09:43:06;23.10;64.60
40323;DHT22;26030;51.164;17.100;2023-03-25T09:53:47;23.10;63.90
40323;DHT22;26030;51.164;17.100;2023-03-25T09:58:55;23.10;63.90
40323;DHT22;26030;51.164;17.100;2023-03-25T10:04:10;23.10;64.30
40323;DHT22;26030;51.164;17.100;2023-03-25T10:09:37;23.00;63.30
40323;DHT22;26030;51.164;17.100;2023-03-25T10:25:17;23.10;64.30
40323;DHT22;26030;51.164;17.100;2023-03-25T10:35:30;23.00;64.00
40323;DHT22;26030;51.164;17.100;2023-03-25T10:40:40;22.90;64.60
40323;DHT22;26030;51.164;17.100;2023-03-25T10:45:57;23.00;65.20
40323;DHT22;26030;51.164;17.100;2023-03-25T10:51:18;23.00;64.00
40323;DHT22;26030;51.164;17.100;2023-03-25T10:56:38;23.00;64.30
40323;DHT22;26030;51.164;17.100;2023-03-25T11:01:47;23.10;63.90
40323;DHT22;26030;51.164;17.100;2023-03-25T11:06:53;23.30;63.90
40323;DHT22;26030;51.164;17.100;2023-03-25T11:12:04;23.80;62.40
40323;DHT22;26030;51.164;17.100;2023-03-25T11:17:15;23.90;62.20
40323;DHT22;26030;51.164;17.100;2023-03-25T11:22:25;24.00;61.90
40323;DHT22;26030;51.164;17.100;2023-03-25T11:27:37;23.60;62.10
40323;DHT22;26030;51.164;17.100;2023-03-25T11:32:59;23.40;63.10
40323;DHT22;26030;51.164;17.100;2023-03-25T11:38:21;23.40;63.30
40323;DHT22;26030;51.164;17.100;2023-03-25T11:43:28;23.50;63.30
40323;DHT22;26030;51.164;17.100;2023-03-25T11:48:38;23.50;63.70
40323;DHT22;26030;51.164;17.100;2023-03-25T11:53:45;23.50;64.70
40323;DHT22;26030;51.164;17.100;2023-03-25T11:58:52;23.60;66.60
40323;DHT22;26030;51.164;17.100;2023-03-25T12:04:16;23.80;66.10
40323;DHT22;26030;51.164;17.100;2023-03-25T12:09:24;23.50;64.60
40323;DHT22;26030;51.164;17.100;2023-03-25T12:20:04;23.40;64.30
40323;DHT22;26030;51.164;17.100;2023-03-25T12:30:56;23.30;63.20
40323;DHT22;26030;51.164;17.100;2023-03-25T12:41:20;23.30;62.50
40323;DHT22;26030;51.164;17.100;2023-03-25T12:52:22;23.20;61.90
40323;DHT22;26030;51.164;17.100;2023-03-25T13:02:59;23.30;61.00
40323;DHT22;26030;51.164;17.100;2023-03-25T13:13:39;23.10;61.00
40323;DHT22;26030;51.164;17.100;2023-03-25T13:18:47;23.10;61.00
40323;DHT22;26030;51.164;17.100;2023-03-25T13:24:01;23.10;60.90
40323;DHT22;26030;51.164;17.100;2023-03-25T13:29:20;23.10;60.70
40323;DHT22;26030;51.164;17.100;2023-03-25T13:34:56;23.00;60.80
40323;DHT22;26030;51.164;17.100;2023-03-25T13:40:22;22.90;61.30
40323;DHT22;26030;51.164;17.100;2023-03-25T13:45:32;22.90;60.90
40323;DHT22;26030;51.164;17.100;2023-03-25T13:51:02;22.90;60.70
40323;DHT22;26030;51.164;17.100;2023-03-25T13:56:30;22.90;60.70
40323;DHT22;26030;51.164;17.100;2023-03-25T14:02:06;22.90;60.90
40323;DHT22;26030;51.164;17.100;2023-03-25T14:12:45;22.80;60.30
40323;DHT22;26030;51.164;17.100;2023-03-25T14:18:04;22.80;60.20
40323;DHT22;26030;51.164;17.100;2023-03-25T14:23:16;22.90;60.10
40323;DHT22;26030;51.164;17.100;2023-03-25T14:28:36;22.80;59.80
40323;DHT22;26030;51.164;17.100;2023-03-25T14:39:08;22.80;59.70
40323;DHT22;26030;51.164;17.100;2023-03-25T14:44:16;22.80;59.80
40323;DHT22;26030;51.164;17.100;2023-03-25T14:49:22;22.70;59.50
40323;DHT22;26030;51.164;17.100;2023-03-25T14:54:32;22.70;60.00
40323;DHT22;26030;51.164;17.100;2023-03-25T14:59:39;22.70;59.70
40323;DHT22;26030;51.164;17.100;2023-03-25T15:10:24;22.80;59.30
40323;DHT22;26030;51.164;17.100;2023-03-25T15:20:48;22.70;59.40
40323;DHT22;26030;51.164;17.100;2023-03-25T15:25:53;22.70;59.10
40323;DHT22;26030;51.164;17.100;2023-03-25T15:31:11;22.70;58.80
40323;DHT22;26030;51.164;17.100;2023-03-25T15:36:30;22.60;59.00
40323;DHT22;26030;51.164;17.100;2023-03-25T15:41:55;22.60;58.80
40323;DHT22;26030;51.164;17.100;2023-03-25T15:52:35;22.50;58.70
40323;DHT22;26030;51.164;17.100;2023-03-25T15:58:01;22.50;58.60
40323;DHT22;26030;51.164;17.100;2023-03-25T16:03:16;22.50;59.00
40323;DHT22;26030;51.164;17.100;2023-03-25T16:08:34;22.50;58.40
40323;DHT22;26030;51.164;17.100;2023-03-25T16:14:06;22.60;58.40
40323;DHT22;26030;51.164;17.100;2023-03-25T16:19:16;22.60;58.90
40323;DHT22;26030;51.164;17.100;2023-03-25T16:24:25;22.60;59.10
40323;DHT22;26030;51.164;17.100;2023-03-25T16:29:32;22.60;58.90
40323;DHT22;26030;51.164;17.100;2023-03-25T16:34:39;22.60;59.10
40323;DHT22;26030;51.164;17.100;2023-03-25T16:39:48;22.60;59.20
40323;DHT22;26030;51.164;17.100;2023-03-25T16:44:54;22.40;60.00
40323;DHT22;26030;51.164;17.100;2023-03-25T16:49:59;22.40;59.90
40323;DHT22;26030;51.164;17.100;2023-03-25T16:55:28;22.40;59.90
40323;DHT22;26030;51.164;17.100;2023-03-25T17:00:37;22.40;59.20
40323;DHT22;26030;51.164;17.100;2023-03-25T17:11:30;22.40;59.80
40323;DHT22;26030;51.164;17.100;2023-03-25T17:16:37;22.40;59.90
40323;DHT22;26030;51.164;17.100;2023-03-25T17:22:00;22.30;59.80
40323;DHT22;26030;51.164;17.100;2023-03-25T17:27:26;22.20;60.10
40323;DHT22;26030;51.164;17.100;2023-03-25T17:32:40;22.10;60.50
40323;DHT22;26030;51.164;17.100;2023-03-25T17:37:48;22.10;60.20
40323;DHT22;26030;51.164;17.100;2023-03-25T17:42:53;22.10;60.20
40323;DHT22;26030;51.164;17.100;2023-03-25T17:47:59;22.10;60.10
40323;DHT22;26030;51.164;17.100;2023-03-25T17:53:04;22.10;60.40
40323;DHT22;26030;51.164;17.100;2023-03-25T17:58:12;22.10;59.90
40323;DHT22;26030;51.164;17.100;2023-03-25T18:03:19;22.10;59.70
40323;DHT22;26030;51.164;17.100;2023-03-25T18:08:28;22.10;59.70
40323;DHT22;26030;51.164;17.100;2023-03-25T18:13:34;22.10;59.80
40323;DHT22;26030;51.164;17.100;2023-03-25T18:18:43;22.00;59.60
40323;DHT22;26030;51.164;17.100;2023-03-25T18:23:49;22.00;59.60
40323;DHT22;26030;51.164;17.100;2023-03-25T18:28:54;22.00;60.60
40323;DHT22;26030;51.164;17.100;2023-03-25T18:34:00;22.00;60.00
40323;DHT22;26030;51.164;17.100;2023-03-25T18:39:17;22.00;60.00
40323;DHT22;26030;51.164;17.100;2023-03-25T18:44:26;22.00;60.80
40323;DHT22;26030;51.164;17.100;2023-03-25T18:49:38;22.10;60.60
40323;DHT22;26030;51.164;17.100;2023-03-25T18:54:44;22.20;60.60
40323;DHT22;26030;51.164;17.100;2023-03-25T18:59:50;22.10;60.60
40323;DHT22;26030;51.164;17.100;2023-03-25T19:04:57;21.90;60.50
40323;DHT22;26030;51.164;17.100;2023-03-25T19:10:04;22.00;60.60
40323;DHT22;26030;51.164;17.100;2023-03-25T19:15:10;22.10;60.90
40323;DHT22;26030;51.164;17.100;2023-03-25T19:20:19;22.30;60.60
40323;DHT22;26030;51.164;17.100;2023-03-25T19:25:27;22.30;60.20
40323;DHT22;26030;51.164;17.100;2023-03-25T19:30:33;22.30;60.20
40323;DHT22;26030;51.164;17.100;2023-03-25T19:35:47;22.30;60.20
40323;DHT22;26030;51.164;17.100;2023-03-25T19:41:05;22.30;60.20
40323;DHT22;26030;51.164;17.100;2023-03-25T19:46:13;22.40;59.50
40323;DHT22;26030;51.164;17.100;2023-03-25T19:51:21;22.40;60.00
40323;DHT22;26030;51.164;17.100;2023-03-25T19:56:27;22.20;60.10
40323;DHT22;26030;51.164;17.100;2023-03-25T20:01:37;22.20;60.40
40323;DHT22;26030;51.164;17.100;2023-03-25T20:06:44;22.30;60.70
40323;DHT22;26030;51.164;17.100;2023-03-25T20:11:50;22.20;60.50
40323;DHT22;26030;51.164;17.100;2023-03-25T20:16:56;22.20;59.60
40323;DHT22;26030;51.164;17.100;2023-03-25T20:22:02;22.20;59.90
40323;DHT22;26030;51.164;17.100;2023-03-25T20:27:26;22.20;59.20
40323;DHT22;26030;51.164;17.100;2023-03-25T20:32:33;22.20;59.40
40323;DHT22;26030;51.164;17.100;2023-03-25T20:37:46;22.10;59.60
40323;DHT22;26030;51.164;17.100;2023-03-25T20:42:54;22.10;59.50
40323;DHT22;26030;51.164;17.100;2023-03-25T20:48:00;22.10;60.00
40323;DHT22;26030;51.164;17.100;2023-03-25T20:53:05;22.00;60.30
40323;DHT22;26030;51.164;17.100;2023-03-25T20:58:12;22.10;60.50
40323;DHT22;26030;51.164;17.100;2023-03-25T21:03:18;22.00;60.60
40323;DHT22;26030;51.164;17.100;2023-03-25T21:08:25;22.00;62.10
40323;DHT22;26030;51.164;17.100;2023-03-25T21:13:35;22.00;62.90
40323;DHT22;26030;51.164;17.100;2023-03-25T21:18:40;22.00;63.30
40323;DHT22;26030;51.164;17.100;2023-03-25T21:23:45;22.00;62.60
40323;DHT22;26030;51.164;17.100;2023-03-25T21:28:52;22.00;62.30
40323;DHT22;26030;51.164;17.100;2023-03-25T21:33:59;21.90;62.30
40323;DHT22;26030;51.164;17.100;2023-03-25T21:39:04;21.90;62.00
40323;DHT22;26030;51.164;17.100;2023-03-25T21:44:10;21.90;62.10
40323;DHT22;26030;51.164;17.100;2023-03-25T21:49:18;21.90;62.10
40323;DHT22;26030;51.164;17.100;2023-03-25T21:54:26;21.90;61.90
40323;DHT22;26030;51.164;17.100;2023-03-25T21:59:32;21.90;61.80
40323;DHT22;26030;51.164;17.100;2023-03-25T22:04:36;21.80;61.90
40323;DHT22;26030;51.164;17.100;2023-03-25T22:09:41;21.80;61.60
40323;DHT22;26030;51.164;17.100;2023-03-25T22:14:46;21.80;61.80
40323;DHT22;26030;51.164;17.100;2023-03-25T22:19:50;21.80;61.80
40323;DHT22;26030;51.164;17.100;2023-03-25T22:24:54;21.70;61.80
40323;DHT22;26030;51.164;17.100;2023-03-25T22:29:58;21.80;61.60
40323;DHT22;26030;51.164;17.100;2023-03-25T22:35:04;21.80;61.70
40323;DHT22;26030;51.164;17.100;2023-03-25T22:40:09;21.80;61.40
40323;DHT22;26030;51.164;17.100;2023-03-25T22:45:14;22.00;61.10
40323;DHT22;26030;51.164;17.100;2023-03-25T22:50:18;22.20;60.80
40323;DHT22;26030;51.164;17.100;2023-03-25T22:55:22;22.30;60.30
40323;DHT22;26030;51.164;17.100;2023-03-25T23:00:28;22.50;59.90
40323;DHT22;26030;51.164;17.100;2023-03-25T23:05:32;22.60;59.90
40323;DHT22;26030;51.164;17.100;2023-03-25T23:10:41;22.70;59.60
40323;DHT22;26030;51.164;17.100;2023-03-25T23:15:46;22.70;59.40
40323;DHT22;26030;51.164;17.100;2023-03-25T23:20:50;22.90;59.20
40323;DHT22;26030;51.164;17.100;2023-03-25T23:25:59;22.90;59.00
40323;DHT22;26030;51.164;17.100;2023-03-25T23:31:13;23.00;58.80
40323;DHT22;26030;51.164;17.100;2023-03-25T23:36:31;23.10;58.50
40323;DHT22;26030;51.164;17.100;2023-03-25T23:41:41;23.30;58.30
40323;DHT22;26030;51.164;17.100;2023-03-25T23:46:53;23.40;57.80
40323;DHT22;26030;51.164;17.100;2023-03-25T23:52:06;23.50;57.90
40323;DHT22;26030;51.164;17.100;2023-03-25T23:57:14;23.40;58.50
